Time;durP1;ratioP1;P1;durP2;ratioP2;P2;SDS_P1;SDS_P2;PMS_P1;PMS_P2;Temp;Humidity;BMP_temperature;BMP_pressure;BME280_temperature;BME280_humidity;BME280_pressure;Samples;Min_cycle;Max_cycle;Signal;HPM_P1;HPM_P2
2022/11/03 00:00:07;;;;;;;2.53;0.70;;;11.30;99.90;;;;;;5041454;28;20536;-71
2022/11/03 00:02:33;;;;;;;3.15;0.35;;;11.30;99.90;;;;;;5039241;28;20091;-71
2022/11/03 00:06:03;;;;;;;4.20;0.60;;;11.30;99.90;;;;;;5023917;28;20044;-71
2022/11/03 00:07:44;;;;;;;2.35;0.93;;;11.30;99.90;;;;;;5039598;28;20047;-71
2022/11/03 00:10:09;;;;;;;0.45;0.35;;;11.30;99.90;;;;;;5039503;28;20037;-71
2022/11/03 00:12:35;;;;;;;2.30;0.40;;;11.30;99.90;;;;;;5039444;28;20533;-71
2022/11/03 00:15:00;;;;;;;2.70;0.47;;;11.30;99.90;;;;;;5042387;28;20427;-71
2022/11/03 00:17:26;;;;;;;3.13;0.55;;;11.30;99.90;;;;;;5040309;28;20799;-71
2022/11/03 00:19:51;;;;;;;1.48;0.50;;;11.30;99.90;;;;;;5038834;28;20083;-71
2022/11/03 00:22:17;;;;;;;3.30;0.60;;;11.30;99.90;;;;;;5037299;28;20048;-71
2022/11/03 00:24:42;;;;;;;1.60;0.60;;;11.30;99.90;;;;;;5040129;28;20033;-71
2022/11/03 00:27:08;;;;;;;3.15;0.77;;;11.40;99.90;;;;;;5040529;28;20029;-71
2022/11/03 00:29:33;;;;;;;4.13;0.73;;;11.40;99.90;;;;;;5040836;28;20033;-71
2022/11/03 00:31:59;;;;;;;3.17;0.82;;;11.30;99.90;;;;;;5040223;28;20040;-71
2022/11/03 00:34:25;;;;;;;1.27;0.55;;;11.20;99.90;;;;;;5040074;28;20033;-71
2022/11/03 00:36:50;;;;;;;3.10;0.88;;;11.30;99.90;;;;;;5040210;28;20442;-71
2022/11/03 00:39:16;;;;;;;2.22;0.82;;;11.30;99.90;;;;;;5041279;28;20075;-71
2022/11/03 00:41:41;;;;;;;1.48;0.55;;;11.30;99.90;;;;;;5040996;28;20040;-71
2022/11/03 00:44:09;;;;;;;1.13;0.32;;;11.20;99.90;;;;;;5023285;28;20045;-71
2022/11/03 00:46:35;;;;;;;3.80;1.02;;;11.20;99.90;;;;;;5042157;28;20103;-71
2022/11/03 00:49:01;;;;;;;1.73;0.85;;;11.20;99.90;;;;;;5040423;28;20033;-71
2022/11/03 00:51:32;;;;;;;2.88;0.75;;;11.20;99.90;;;;;;5038972;28;20037;-71
2022/11/03 00:54:03;;;;;;;1.85;0.47;;;11.20;99.90;;;;;;5038742;28;20095;-71
2022/11/03 00:56:38;;;;;;;5.90;0.90;;;11.20;99.90;;;;;;5054568;28;20051;-71
2022/11/03 00:59:05;;;;;;;2.33;0.47;;;11.20;99.90;;;;;;5039915;28;20491;-71
2022/11/03 01:01:39;;;;;;;1.55;0.60;;;11.20;99.90;;;;;;5039775;28;20041;-71
2022/11/03 01:06:53;;;;;;;1.63;0.50;;;11.10;99.90;;;;;;5040750;28;20075;-71
2022/11/03 01:09:36;;;;;;;5.00;0.60;;;11.10;99.90;;;;;;5039184;28;20291;-71
2022/11/03 01:12:12;;;;;;;1.40;0.57;;;11.10;99.90;;;;;;5038694;28;20028;-71
2022/11/03 01:14:45;;;;;;;3.85;0.75;;;11.10;99.90;;;;;;5023602;28;20064;-71
2022/11/03 01:17:22;;;;;;;3.38;0.50;;;11.10;99.90;;;;;;5040432;28;20068;-71
2022/11/03 01:19:48;;;;;;;1.10;0.57;;;11.10;99.90;;;;;;5035333;28;20554;-71
2022/11/03 01:22:14;;;;;;;2.30;0.43;;;11.10;99.90;;;;;;5041179;28;20048;-71
2022/11/03 01:24:41;;;;;;;12.75;0.93;;;11.10;99.90;;;;;;5039190;28;20052;-71
2022/11/03 01:27:14;;;;;;;2.15;0.57;;;11.10;99.90;;;;;;5027834;28;20051;-71
2022/11/03 01:29:40;;;;;;;4.90;0.70;;;11.00;99.90;;;;;;5043652;28;20033;-71
2022/11/03 01:32:07;;;;;;;5.38;0.52;;;11.10;99.90;;;;;;5042840;28;20091;-71
2022/11/03 01:34:33;;;;;;;4.90;0.90;;;11.00;99.90;;;;;;5044052;28;20036;-71
2022/11/03 01:36:59;;;;;;;1.23;0.38;;;11.00;99.90;;;;;;5042886;28;20040;-70
2022/11/03 01:39:25;;;;;;;0.90;0.45;;;11.00;99.90;;;;;;5040992;28;20040;-70
2022/11/03 01:41:51;;;;;;;2.50;0.52;;;11.10;99.90;;;;;;5042007;28;20394;-71
2022/11/03 01:44:17;;;;;;;3.97;0.90;;;11.10;99.90;;;;;;5024419;28;20044;-71
2022/11/03 01:46:53;;;;;;;3.47;0.60;;;11.00;99.90;;;;;;5040117;28;20051;-71
2022/11/03 01:49:23;;;;;;;0.73;0.30;;;11.00;99.90;;;;;;5043380;28;20529;-71
2022/11/03 01:51:55;;;;;;;1.02;0.45;;;11.00;99.90;;;;;;5041135;28;20043;-71
2022/11/03 01:54:25;;;;;;;6.90;0.73;;;11.00;99.90;;;;;;5041445;28;20041;-71
2022/11/03 01:56:51;;;;;;;2.90;0.80;;;11.00;99.90;;;;;;5040286;28;20119;-70
2022/11/03 01:59:19;;;;;;;1.60;0.70;;;11.00;99.90;;;;;;5042742;28;20546;-71
2022/11/03 02:01:46;;;;;;;2.58;0.70;;;11.00;99.90;;;;;;5026158;28;20422;-71
2022/11/03 02:04:27;;;;;;;1.33;0.60;;;11.00;99.90;;;;;;5040856;28;20036;-71
2022/11/03 02:07:01;;;;;;;1.30;0.68;;;11.00;99.90;;;;;;5039910;28;20130;-71
2022/11/03 02:09:28;;;;;;;3.30;1.07;;;11.00;99.90;;;;;;5042158;28;20075;-71
2022/11/03 02:12:06;;;;;;;4.85;0.68;;;11.00;99.90;;;;;;5040511;28;20520;-70
2022/11/03 02:14:34;;;;;;;1.05;0.50;;;11.00;99.90;;;;;;5043032;28;20135;-71
2022/11/03 02:17:04;;;;;;;3.13;0.93;;;11.00;99.90;;;;;;5039695;28;20072;-71
2022/11/03 02:19:36;;;;;;;3.47;0.60;;;11.00;99.90;;;;;;5042552;28;20115;-71
2022/11/03 02:22:18;;;;;;;5.95;1.20;;;10.90;99.90;;;;;;5042255;28;20029;-71
2022/11/03 02:25:14;;;;;;;1.42;0.40;;;11.00;99.90;;;;;;5040867;28;20735;-71
2022/11/03 02:27:40;;;;;;;2.67;1.02;;;11.00;99.90;;;;;;5018515;28;20573;-71
2022/11/03 02:30:06;;;;;;;1.08;0.50;;;11.00;99.90;;;;;;5041817;28;20098;-71
2022/11/03 02:32:43;;;;;;;3.40;0.60;;;11.00;99.90;;;;;;5041831;28;20785;-71
2022/11/03 02:35:36;;;;;;;2.05;0.60;;;10.90;99.90;;;;;;5034857;28;20049;-71
2022/11/03 02:38:06;;;;;;;2.47;0.63;;;11.00;99.90;;;;;;5038748;28;20040;-71
2022/11/03 02:40:39;;;;;;;2.28;0.68;;;11.00;99.90;;;;;;5055915;28;20115;-71
2022/11/03 02:43:07;;;;;;;0.43;0.30;;;11.00;99.90;;;;;;5043925;28;20060;-71
2022/11/03 02:45:33;;;;;;;4.40;0.80;;;11.00;99.90;;;;;;5040149;28;20033;-71
2022/11/03 02:48:01;;;;;;;5.20;1.13;;;11.00;99.90;;;;;;5025799;28;20033;-71
2022/11/03 02:50:29;;;;;;;2.88;0.63;;;11.00;99.90;;;;;;5039712;28;20045;-71
2022/11/03 02:52:56;;;;;;;4.07;0.90;;;11.00;99.90;;;;;;5039941;28;20178;-71
2022/11/03 02:55:35;;;;;;;1.92;0.55;;;11.00;99.90;;;;;;5040686;28;20037;-71
2022/11/03 02:58:22;;;;;;;5.57;0.63;;;11.00;99.90;;;;;;5040525;28;20040;-71
2022/11/03 03:01:05;;;;;;;3.10;0.77;;;11.00;99.90;;;;;;5022710;28;20064;-71
2022/11/03 03:03:39;;;;;;;5.25;1.17;;;11.00;99.90;;;;;;5040987;28;20490;-71
2022/11/03 03:06:10;;;;;;;2.67;0.88;;;11.00;99.90;;;;;;5038749;28;20048;-71
2022/11/03 03:08:40;;;;;;;1.70;0.30;;;11.00;99.90;;;;;;5043107;28;20065;-71
2022/11/03 03:11:09;;;;;;;3.95;0.60;;;11.00;99.90;;;;;;5041545;28;20107;-71
2022/11/03 03:13:34;;;;;;;6.57;0.88;;;11.00;99.90;;;;;;5039748;28;20063;-71
2022/11/03 03:16:24;;;;;;;3.15;0.68;;;11.00;99.90;;;;;;5039867;28;20056;-71
2022/11/03 03:19:10;;;;;;;2.80;1.13;;;11.00;99.90;;;;;;5040693;28;20041;-71
2022/11/03 03:21:42;;;;;;;1.50;0.90;;;11.10;99.90;;;;;;5042250;28;20391;-71
2022/11/03 03:24:17;;;;;;;1.60;0.80;;;11.00;99.90;;;;;;5040345;28;20033;-71
2022/11/03 03:26:48;;;;;;;1.67;0.52;;;11.00;99.90;;;;;;5038598;28;20132;-71
2022/11/03 03:29:25;;;;;;;2.58;0.52;;;11.10;99.90;;;;;;5041654;28;20033;-71
2022/11/03 03:31:56;;;;;;;1.42;0.55;;;11.10;99.90;;;;;;5039218;28;20540;-71
2022/11/03 03:34:25;;;;;;;2.38;1.00;;;11.10;99.90;;;;;;5039966;28;20205;-71
2022/11/03 03:36:52;;;;;;;2.65;0.77;;;11.10;99.90;;;;;;5041230;28;20494;-71
2022/11/03 03:39:22;;;;;;;1.92;0.35;;;11.10;99.90;;;;;;5038145;28;20037;-71
2022/11/03 03:41:48;;;;;;;2.92;0.40;;;11.00;99.90;;;;;;5024063;28;20560;-71
2022/11/03 03:44:16;;;;;;;5.90;0.82;;;11.10;99.90;;;;;;5039704;28;20049;-71
2022/11/03 03:46:46;;;;;;;3.13;0.70;;;11.10;99.90;;;;;;5038354;28;20083;-71
2022/11/03 03:49:13;;;;;;;5.22;0.85;;;11.10;99.90;;;;;;5041472;28;20136;-71
2022/11/03 03:51:39;;;;;;;4.43;0.68;;;11.10;99.90;;;;;;5029252;28;20110;-71
2022/11/03 03:54:05;;;;;;;1.58;0.60;;;11.10;99.90;;;;;;5039869;28;20584;-70
2022/11/03 03:56:52;;;;;;;4.40;0.75;;;11.10;99.90;;;;;;5040712;28;20112;-71
2022/11/03 03:59:17;;;;;;;1.25;0.60;;;11.10;99.90;;;;;;5039106;28;20058;-71
2022/11/03 04:01:43;;;;;;;1.23;0.50;;;11.10;99.90;;;;;;5040231;28;20406;-71
2022/11/03 04:04:08;;;;;;;4.40;0.80;;;11.00;99.90;;;;;;5040345;28;20064;-71
2022/11/03 04:06:34;;;;;;;1.98;0.52;;;11.10;99.90;;;;;;5040420;28;20036;-71
2022/11/03 04:09:00;;;;;;;1.80;0.70;;;11.10;99.90;;;;;;5040649;28;20033;-71
2022/11/03 04:22:24;;;;;;;2.08;0.70;;;11.00;99.90;;;;;;5040634;28;20042;-71
2022/11/03 04:24:50;;;;;;;0.73;0.40;;;11.00;99.90;;;;;;5039745;28;20552;-71
2022/11/03 04:27:34;;;;;;;6.85;1.05;;;11.00;99.90;;;;;;5039749;28;20037;-71
2022/11/03 04:30:09;;;;;;;2.10;0.65;;;11.10;99.90;;;;;;5039088;28;20166;-71
2022/11/03 04:32:35;;;;;;;1.52;0.60;;;11.00;99.90;;;;;;5040421;28;20458;-71
2022/11/03 04:35:06;;;;;;;3.33;0.75;;;11.00;99.90;;;;;;5040531;28;20037;-71
2022/11/03 04:37:31;;;;;;;1.73;0.40;;;11.00;99.90;;;;;;5037663;28;20091;-71
2022/11/03 04:40:00;;;;;;;0.57;0.40;;;11.00;99.90;;;;;;5041094;28;20494;-71
2022/11/03 04:42:30;;;;;;;3.45;0.55;;;11.00;99.90;;;;;;5040304;28;20086;-71
2022/11/03 04:44:59;;;;;;;5.00;0.93;;;11.00;99.90;;;;;;5039148;28;20037;-71
2022/11/03 04:47:25;;;;;;;3.95;0.63;;;11.00;99.90;;;;;;5036908;28;20048;-71
2022/11/03 04:49:51;;;;;;;2.47;0.80;;;11.00;99.90;;;;;;5039992;28;20029;-71
2022/11/03 04:52:20;;;;;;;1.00;0.30;;;11.10;99.90;;;;;;5038969;28;20041;-71
2022/11/03 04:54:48;;;;;;;6.43;1.13;;;11.10;99.90;;;;;;5040130;28;20029;-71
2022/11/03 04:57:16;;;;;;;2.15;0.60;;;11.00;99.90;;;;;;5042698;28;20045;-71
2022/11/03 04:59:47;;;;;;;4.97;0.70;;;11.00;99.90;;;;;;5028152;28;20045;-71
2022/11/03 05:02:16;;;;;;;3.88;0.70;;;11.00;99.90;;;;;;5041954;28;20036;-71
2022/11/03 05:04:42;;;;;;;2.85;0.55;;;11.00;99.90;;;;;;5044582;28;20035;-71
2022/11/03 05:07:27;;;;;;;0.93;0.70;;;11.10;99.90;;;;;;5043083;28;20759;-71
2022/11/03 05:09:53;;;;;;;3.37;0.80;;;11.00;99.90;;;;;;5059975;28;20482;-71
2022/11/03 05:12:19;;;;;;;0.98;0.50;;;11.10;99.90;;;;;;5045488;28;20353;-71
2022/11/03 05:14:45;;;;;;;7.70;1.52;;;11.10;99.90;;;;;;5043074;28;20048;-70
2022/11/03 05:17:31;;;;;;;2.60;0.85;;;11.00;99.90;;;;;;5042073;28;20045;-71
2022/11/03 05:20:02;;;;;;;0.73;0.28;;;11.00;99.90;;;;;;5042137;28;20079;-71
2022/11/03 05:22:32;;;;;;;3.15;0.50;;;11.10;99.90;;;;;;5040821;28;20418;-71
2022/11/03 05:25:09;;;;;;;1.27;0.68;;;11.10;99.90;;;;;;5028143;28;20046;-71
2022/11/03 05:27:35;;;;;;;2.70;0.82;;;11.10;99.90;;;;;;5041441;28;20032;-71
2022/11/03 05:30:01;;;;;;;0.77;0.43;;;11.10;99.90;;;;;;5027493;28;20497;-71
2022/11/03 05:32:31;;;;;;;1.80;0.40;;;11.10;99.90;;;;;;5040794;28;20033;-71
2022/11/03 05:34:57;;;;;;;1.63;0.60;;;11.10;99.90;;;;;;5039220;28;20047;-71
2022/11/03 05:37:31;;;;;;;2.40;0.80;;;11.10;99.90;;;;;;5026180;28;20190;-71
2022/11/03 05:40:24;;;;;;;2.08;0.80;;;11.00;99.90;;;;;;5043122;28;20044;-71
2022/11/03 05:42:58;;;;;;;2.45;0.77;;;11.10;99.90;;;;;;5043448;28;20057;-71
2022/11/03 05:45:42;;;;;;;7.05;1.17;;;11.10;99.90;;;;;;5041459;28;20064;-71
2022/11/03 05:48:18;;;;;;;2.13;0.68;;;11.10;99.90;;;;;;5043078;28;20065;-71
2022/11/03 05:50:44;;;;;;;3.40;1.02;;;11.10;99.90;;;;;;5041305;28;20037;-71
2022/11/03 05:53:25;;;;;;;0.90;0.43;;;11.10;99.90;;;;;;5040012;28;20059;-71
2022/11/03 05:55:52;;;;;;;2.65;0.82;;;11.10;99.90;;;;;;5044002;28;20048;-71
2022/11/03 05:58:29;;;;;;;1.52;0.40;;;11.10;99.90;;;;;;5027545;28;20045;-71
2022/11/03 06:00:56;;;;;;;4.60;0.85;;;11.10;99.90;;;;;;5044068;28;20029;-71
2022/11/03 06:03:30;;;;;;;1.75;0.60;;;11.10;99.90;;;;;;5042739;28;20098;-71
2022/11/03 06:05:57;;;;;;;1.35;0.50;;;11.10;99.90;;;;;;5041571;28;20041;-71
2022/11/03 06:08:26;;;;;;;1.83;0.65;;;11.10;99.90;;;;;;5037864;28;20486;-71
2022/11/03 06:10:58;;;;;;;2.10;0.68;;;11.10;99.90;;;;;;5044012;28;20055;-71
2022/11/03 06:13:32;;;;;;;5.85;0.70;;;11.10;99.90;;;;;;5040305;28;20037;-71
2022/11/03 06:16:02;;;;;;;2.65;0.88;;;11.10;99.90;;;;;;5041919;28;20071;-71
2022/11/03 06:18:36;;;;;;;4.85;0.98;;;11.10;99.90;;;;;;5041643;28;20041;-71
2022/11/03 06:21:23;;;;;;;1.83;0.40;;;11.10;99.90;;;;;;5041410;28;20901;-71
2022/11/03 06:23:49;;;;;;;1.58;0.70;;;11.10;99.90;;;;;;5034023;28;20071;-71
2022/11/03 06:26:21;;;;;;;1.98;0.68;;;11.10;99.90;;;;;;5026792;28;20453;-71
2022/11/03 06:28:47;;;;;;;1.20;0.60;;;11.10;99.90;;;;;;5042998;28;20041;-71
2022/11/03 06:31:19;;;;;;;2.15;0.50;;;11.10;99.90;;;;;;5042072;28;20045;-71
2022/11/03 06:33:45;;;;;;;1.02;0.38;;;11.10;99.90;;;;;;5041133;28;20037;-71
2022/11/03 06:36:22;;;;;;;2.35;1.00;;;11.10;99.90;;;;;;5042563;28;20049;-71
2022/11/03 06:39:00;;;;;;;2.88;0.63;;;11.10;99.90;;;;;;5023297;28;20123;-71
2022/11/03 06:41:28;;;;;;;4.80;0.95;;;11.10;99.90;;;;;;5042748;28;20186;-71
2022/11/03 06:43:55;;;;;;;4.40;0.80;;;11.10;99.90;;;;;;5061783;28;20029;-71
2022/11/03 06:46:23;;;;;;;2.33;0.70;;;11.10;99.90;;;;;;5044679;28;20053;-71
2022/11/03 06:48:51;;;;;;;1.10;0.50;;;11.10;99.90;;;;;;5060782;28;20527;-71
2022/11/03 06:51:24;;;;;;;2.22;0.93;;;11.10;99.90;;;;;;5046285;28;20448;-71
2022/11/03 06:53:51;;;;;;;7.28;0.65;;;11.10;99.90;;;;;;5038051;28;20045;-70
2022/11/03 06:56:34;;;;;;;1.20;0.57;;;11.10;99.90;;;;;;5041098;28;20086;-71
2022/11/03 06:58:59;;;;;;;5.18;0.75;;;11.10;99.90;;;;;;5024622;28;20048;-71
2022/11/03 07:01:29;;;;;;;5.57;0.90;;;11.10;99.90;;;;;;5038411;28;20025;-70
2022/11/03 07:04:20;;;;;;;4.97;0.80;;;11.10;99.90;;;;;;5042137;28;20048;-71
2022/11/03 07:06:49;;;;;;;2.22;0.65;;;11.10;99.90;;;;;;5040778;28;20394;-71
2022/11/03 07:09:21;;;;;;;2.13;0.75;;;11.10;99.90;;;;;;5024009;28;20095;-71
2022/11/03 07:11:57;;;;;;;5.22;0.70;;;11.20;99.90;;;;;;5041880;28;20478;-71
2022/11/03 07:14:28;;;;;;;0.77;0.30;;;11.10;99.90;;;;;;5036370;28;20551;-71
2022/11/03 07:16:57;;;;;;;6.43;0.90;;;11.20;99.90;;;;;;5042928;28;20049;-71
2022/11/03 07:19:35;;;;;;;1.08;0.60;;;11.20;99.90;;;;;;5039883;28;20048;-71
2022/11/03 07:22:13;;;;;;;0.70;0.50;;;11.20;99.90;;;;;;5040316;28;20067;-71
2022/11/03 07:24:44;;;;;;;3.60;0.60;;;11.30;99.90;;;;;;5039369;28;20410;-71
2022/11/03 07:27:22;;;;;;;1.58;0.82;;;11.30;99.90;;;;;;5040567;28;20399;-71
2022/11/03 07:29:49;;;;;;;2.40;0.57;;;11.30;99.90;;;;;;5038390;28;20083;-71
2022/11/03 07:32:19;;;;;;;4.57;0.85;;;11.30;99.90;;;;;;5039300;28;20056;-71
2022/11/03 07:34:45;;;;;;;7.07;0.85;;;11.40;99.90;;;;;;5040743;28;20033;-71
2022/11/03 07:37:19;;;;;;;3.25;0.90;;;11.40;99.90;;;;;;5040768;28;20167;-71
2022/11/03 07:39:45;;;;;;;4.30;1.40;;;11.40;99.90;;;;;;5020244;28;20040;-71
2022/11/03 07:42:20;;;;;;;2.83;0.73;;;11.50;99.90;;;;;;5040035;28;20040;-71
2022/11/03 07:44:46;;;;;;;1.90;1.27;;;11.50;99.90;;;;;;5037947;28;20101;-71
2022/11/03 07:47:15;;;;;;;2.65;0.85;;;11.50;99.90;;;;;;5039941;28;20037;-71
2022/11/03 07:49:41;;;;;;;1.40;0.70;;;11.50;99.90;;;;;;5023617;28;20060;-70
2022/11/03 07:52:19;;;;;;;3.92;0.63;;;11.60;99.90;;;;;;5051445;28;20041;-71
2022/11/03 07:54:45;;;;;;;2.08;0.50;;;11.60;99.90;;;;;;5055066;28;20076;-71
2022/11/03 07:57:24;;;;;;;1.77;0.90;;;11.60;99.90;;;;;;5038749;28;20487;-71
2022/11/03 07:59:55;;;;;;;2.15;0.68;;;11.70;99.90;;;;;;5043325;28;20037;-73
2022/11/03 08:02:40;;;;;;;2.17;0.73;;;11.70;99.90;;;;;;5019260;28;20040;-72
2022/11/03 08:05:06;;;;;;;1.02;0.65;;;11.70;99.90;;;;;;5037170;28;20033;-71
2022/11/03 08:07:32;;;;;;;1.80;0.82;;;11.80;99.90;;;;;;5039938;28;20041;-70
2022/11/03 08:09:57;;;;;;;3.47;1.10;;;11.80;99.90;;;;;;5046266;28;20405;-71
2022/11/03 08:12:23;;;;;;;2.42;0.50;;;11.80;99.90;;;;;;5044691;28;20049;-71
2022/11/03 08:14:49;;;;;;;3.35;0.70;;;11.80;99.90;;;;;;5063688;28;20518;-71
2022/11/03 08:17:14;;;;;;;3.10;1.00;;;11.90;99.90;;;;;;5031483;28;20044;-71
2022/11/03 08:19:40;;;;;;;3.70;0.90;;;12.00;99.90;;;;;;5047845;28;20052;-71
2022/11/03 08:22:06;;;;;;;2.85;0.95;;;11.90;99.90;;;;;;5048993;28;20041;-71
2022/11/03 08:24:32;;;;;;;1.40;0.82;;;12.00;99.90;;;;;;5043161;28;20433;-71
2022/11/03 08:26:57;;;;;;;1.38;0.55;;;12.00;99.90;;;;;;5045783;28;20502;-71
2022/11/03 08:29:26;;;;;;;5.40;0.93;;;12.00;99.90;;;;;;5063876;28;20045;-71
2022/11/03 08:31:52;;;;;;;1.73;0.50;;;12.00;99.90;;;;;;5047282;28;20033;-71
2022/11/03 08:34:18;;;;;;;3.63;0.60;;;12.10;99.90;;;;;;5047987;28;20131;-71
2022/11/03 08:36:44;;;;;;;2.97;0.70;;;12.10;99.90;;;;;;5047950;28;20328;-71
2022/11/03 08:39:10;;;;;;;6.32;0.75;;;12.10;99.90;;;;;;5047160;28;20287;-71
2022/11/03 08:41:35;;;;;;;0.75;0.40;;;12.10;99.90;;;;;;5046577;28;20041;-71
2022/11/03 08:44:01;;;;;;;2.63;0.68;;;12.10;99.90;;;;;;5046854;28;20494;-71
2022/11/03 08:46:27;;;;;;;1.38;0.50;;;12.10;99.90;;;;;;5047835;28;20033;-71
2022/11/03 08:48:53;;;;;;;5.32;0.90;;;12.20;99.90;;;;;;5046590;28;20037;-71
2022/11/03 08:51:19;;;;;;;3.58;1.10;;;12.20;99.90;;;;;;5046858;28;20406;-71
2022/11/03 08:53:45;;;;;;;1.85;0.90;;;12.20;99.90;;;;;;5048562;28;20044;-71
2022/11/03 08:56:11;;;;;;;4.22;0.98;;;12.20;99.90;;;;;;5047606;28;20052;-71
2022/11/03 08:58:37;;;;;;;6.05;1.05;;;12.30;99.90;;;;;;5045639;28;20039;-71
2022/11/03 09:01:03;;;;;;;4.18;0.70;;;12.30;99.90;;;;;;5047935;28;20394;-71
2022/11/03 09:03:28;;;;;;;3.00;0.73;;;12.40;99.90;;;;;;5047516;28;20045;-71
2022/11/03 09:05:54;;;;;;;2.15;0.85;;;12.40;99.90;;;;;;5047790;28;20047;-71
2022/11/03 09:08:19;;;;;;;2.42;0.50;;;12.40;99.90;;;;;;5046392;28;20140;-71
2022/11/03 09:10:45;;;;;;;3.17;0.80;;;12.50;99.90;;;;;;5035871;28;20396;-71
2022/11/03 09:13:11;;;;;;;3.05;0.70;;;12.50;99.90;;;;;;5040378;28;20422;-70
2022/11/03 09:15:36;;;;;;;2.50;0.80;;;12.50;99.90;;;;;;5039385;28;20774;-71
2022/11/03 09:18:02;;;;;;;3.38;0.85;;;12.60;99.90;;;;;;5038847;28;20044;-71
2022/11/03 09:20:28;;;;;;;4.35;0.80;;;12.60;99.90;;;;;;5041232;28;20041;-71
2022/11/03 09:22:53;;;;;;;2.30;1.02;;;12.70;99.90;;;;;;5024066;28;20052;-71
2022/11/03 09:25:19;;;;;;;9.00;1.02;;;12.70;99.90;;;;;;5030995;28;20025;-70
2022/11/03 09:27:44;;;;;;;4.85;1.02;;;12.70;99.90;;;;;;5030907;28;20544;-71
2022/11/03 09:30:11;;;;;;;2.72;0.80;;;12.70;99.90;;;;;;5033302;28;20063;-71
2022/11/03 09:32:37;;;;;;;4.93;0.90;;;12.80;99.90;;;;;;5032807;28;21673;-71
2022/11/03 09:35:03;;;;;;;3.35;0.80;;;12.80;99.90;;;;;;5021748;28;20040;-71
2022/11/03 09:37:29;;;;;;;4.70;0.90;;;12.80;99.90;;;;;;5019376;28;20044;-71
2022/11/03 09:39:55;;;;;;;3.45;0.70;;;12.80;99.90;;;;;;5050558;28;20065;-71
2022/11/03 09:42:21;;;;;;;1.48;0.55;;;12.90;99.90;;;;;;5022768;28;20041;-71
2022/11/03 09:44:48;;;;;;;1.90;0.70;;;13.00;99.90;;;;;;5041269;28;20047;-71
2022/11/03 09:47:28;;;;;;;5.35;1.05;;;13.00;99.90;;;;;;5041999;28;20041;-71
2022/11/03 09:49:54;;;;;;;2.97;1.10;;;13.00;99.90;;;;;;5037477;28;20036;-71
2022/11/03 09:52:22;;;;;;;2.88;0.75;;;13.10;99.90;;;;;;5038529;28;20048;-71
2022/11/03 09:54:50;;;;;;;1.88;0.75;;;13.10;99.90;;;;;;5042476;28;20036;-70
2022/11/03 09:57:16;;;;;;;2.85;0.65;;;13.20;99.90;;;;;;5041634;28;20047;-71
2022/11/03 09:59:45;;;;;;;5.72;0.73;;;13.30;99.90;;;;;;5043691;28;20124;-70
2022/11/03 10:02:29;;;;;;;3.85;0.80;;;13.30;99.90;;;;;;5041294;28;20442;-70
2022/11/03 10:04:57;;;;;;;2.17;0.65;;;13.40;99.90;;;;;;5039531;28;20078;-71
2022/11/03 10:07:26;;;;;;;1.75;0.65;;;13.40;99.90;;;;;;5037236;28;20547;-72
2022/11/03 10:09:52;;;;;;;7.13;1.05;;;13.40;99.90;;;;;;5039909;28;20068;-70
2022/11/03 10:12:20;;;;;;;2.53;0.70;;;13.40;99.90;;;;;;5041728;28;20086;-70
2022/11/03 10:14:46;;;;;;;4.95;1.05;;;13.50;99.90;;;;;;5056228;28;20090;-71
2022/11/03 10:17:27;;;;;;;1.73;0.63;;;13.50;99.90;;;;;;5039600;28;20053;-70
2022/11/03 10:19:55;;;;;;;1.40;0.50;;;13.50;99.90;;;;;;5037617;28;20041;-70
2022/11/03 10:22:21;;;;;;;3.55;0.60;;;13.50;99.90;;;;;;5037940;28;20040;-70
2022/11/03 10:24:47;;;;;;;4.40;0.82;;;13.60;99.90;;;;;;5034947;28;20033;-70
2022/11/03 10:27:21;;;;;;;2.40;0.55;;;13.60;99.90;;;;;;5019622;28;20045;-70
2022/11/03 10:30:10;;;;;;;3.47;0.70;;;13.70;99.90;;;;;;5037165;28;20055;-70
2022/11/03 10:32:36;;;;;;;3.08;0.70;;;13.80;99.90;;;;;;5019489;28;20037;-70
2022/11/03 10:35:22;;;;;;;1.48;0.57;;;13.90;99.90;;;;;;5034902;28;20513;-70
2022/11/03 10:37:48;;;;;;;3.70;0.70;;;13.90;99.90;;;;;;5035796;28;20695;-70
2022/11/03 10:40:34;;;;;;;6.53;0.68;;;13.90;99.90;;;;;;5031459;28;20045;-70
2022/11/03 10:43:00;;;;;;;2.35;0.60;;;13.90;99.90;;;;;;5051451;28;20445;-70
2022/11/03 10:45:25;;;;;;;2.90;1.02;;;13.90;99.90;;;;;;5033185;28;20498;-70
2022/11/03 10:48:05;;;;;;;1.38;0.52;;;13.90;99.90;;;;;;5039453;28;20048;-70
2022/11/03 10:50:31;;;;;;;1.58;0.88;;;13.90;99.90;;;;;;5015894;28;20032;-70
2022/11/03 10:52:56;;;;;;;1.88;0.77;;;13.90;99.90;;;;;;5036866;28;20041;-70
2022/11/03 10:55:23;;;;;;;1.30;0.52;;;14.00;99.90;;;;;;5037745;28;20043;-71
2022/11/03 10:57:50;;;;;;;1.00;0.43;;;14.00;99.90;;;;;;5037765;28;20164;-70
2022/11/03 11:00:17;;;;;;;4.30;0.65;;;14.00;99.90;;;;;;5038767;28;20037;-70
2022/11/03 11:02:45;;;;;;;2.85;0.52;;;14.00;99.90;;;;;;5041077;28;20071;-70
2022/11/03 11:05:21;;;;;;;5.20;1.00;;;14.00;99.90;;;;;;5041716;28;20037;-70
2022/11/03 11:07:51;;;;;;;5.35;0.82;;;14.10;99.90;;;;;;5036522;28;20486;-70
2022/11/03 11:10:23;;;;;;;3.35;0.75;;;14.10;99.90;;;;;;5034137;28;20915;-71
2022/11/03 11:13:04;;;;;;;2.40;0.75;;;14.20;99.90;;;;;;5037267;28;20037;-70
2022/11/03 11:15:39;;;;;;;1.58;0.57;;;14.20;99.90;;;;;;5024279;28;20080;-70
2022/11/03 11:18:05;;;;;;;0.93;0.52;;;14.20;99.90;;;;;;5036577;28;20055;-70
2022/11/03 11:20:34;;;;;;;5.53;0.70;;;14.30;99.90;;;;;;5038542;28;20492;-71
2022/11/03 11:23:28;;;;;;;1.05;0.35;;;14.30;99.90;;;;;;5033760;28;20793;-71
2022/11/03 11:26:25;;;;;;;3.50;0.70;;;14.30;99.90;;;;;;5038804;28;20037;-70
2022/11/03 11:29:12;;;;;;;8.80;0.90;;;14.30;99.90;;;;;;5036865;28;20041;-70
2022/11/03 11:31:41;;;;;;;5.32;1.02;;;14.30;99.90;;;;;;5051304;28;20040;-70
2022/11/03 11:34:09;;;;;;;1.98;0.68;;;14.20;99.90;;;;;;5036572;28;20033;-70
2022/11/03 11:36:54;;;;;;;4.15;0.75;;;14.40;99.90;;;;;;5037260;28;20037;-70
2022/11/03 11:39:23;;;;;;;3.05;0.80;;;14.20;99.90;;;;;;5036786;28;20037;-70
2022/11/03 11:42:20;;;;;;;4.32;0.60;;;14.20;99.90;;;;;;5039042;28;20048;-70
2022/11/03 11:44:53;;;;;;;1.73;1.00;;;14.20;99.90;;;;;;5040298;28;20128;-70
2022/11/03 11:47:54;;;;;;;3.28;0.90;;;14.30;99.90;;;;;;5035954;28;20071;-70
2022/11/03 11:50:22;;;;;;;5.97;0.45;;;14.30;99.90;;;;;;5037225;28;20040;-70
2022/11/03 11:53:06;;;;;;;2.10;0.75;;;14.30;99.90;;;;;;5040327;28;20159;-70
2022/11/03 11:55:52;;;;;;;1.65;0.47;;;14.30;99.90;;;;;;5039841;28;20230;-70
2022/11/03 11:58:25;;;;;;;0.65;0.40;;;14.40;99.90;;;;;;5039078;28;20657;-70
2022/11/03 12:00:52;;;;;;;1.02;0.43;;;14.40;99.90;;;;;;5038020;28;20048;-70
2022/11/03 12:03:24;;;;;;;2.95;0.57;;;14.40;99.90;;;;;;5023546;28;20045;-70
2022/11/03 12:05:49;;;;;;;0.85;0.22;;;14.40;99.90;;;;;;5039246;28;20502;-70
2022/11/03 12:08:20;;;;;;;4.57;0.70;;;14.40;99.90;;;;;;5039875;28;20041;-70
2022/11/03 12:10:53;;;;;;;0.85;0.40;;;14.40;99.90;;;;;;5039252;28;20040;-70
2022/11/03 12:13:46;;;;;;;2.13;0.70;;;14.40;99.90;;;;;;5039774;28;20186;-70
2022/11/03 12:16:36;;;;;;;1.67;0.52;;;14.40;99.90;;;;;;5038440;28;20071;-70
2022/11/03 12:19:33;;;;;;;1.63;0.40;;;14.40;99.90;;;;;;5054335;28;20037;-70
2022/11/03 12:21:59;;;;;;;0.65;0.47;;;14.40;99.90;;;;;;5037853;28;20056;-70
2022/11/03 12:24:31;;;;;;;1.30;0.43;;;14.40;99.90;;;;;;5040251;28;20390;-70
2022/11/03 12:26:58;;;;;;;1.33;0.57;;;14.40;99.90;;;;;;5040591;28;20045;-70
2022/11/03 12:29:24;;;;;;;1.83;0.50;;;14.40;99.90;;;;;;5037699;28;20106;-70
2022/11/03 12:31:49;;;;;;;1.17;0.40;;;14.40;99.90;;;;;;5041617;28;20405;-70
2022/11/03 12:34:16;;;;;;;1.65;0.50;;;14.40;99.90;;;;;;5041197;28;20091;-70
2022/11/03 12:36:42;;;;;;;2.05;0.50;;;14.40;99.90;;;;;;5040660;28;20056;-70
2022/11/03 12:39:08;;;;;;;1.00;0.50;;;14.40;99.90;;;;;;5038850;28;20400;-70
2022/11/03 12:41:33;;;;;;;2.78;0.52;;;14.40;99.90;;;;;;5025138;28;20036;-70
2022/11/03 12:43:59;;;;;;;2.55;0.52;;;14.40;99.90;;;;;;5038357;28;20052;-73
2022/11/03 12:46:25;;;;;;;2.38;0.70;;;14.40;99.90;;;;;;5042675;28;20326;-71
2022/11/03 12:48:51;;;;;;;1.30;0.45;;;14.40;99.90;;;;;;5038139;28;20037;-70
2022/11/03 12:51:19;;;;;;;1.80;0.40;;;14.30;99.90;;;;;;5047133;28;20048;-71
2022/11/03 12:53:44;;;;;;;1.60;0.50;;;14.30;99.90;;;;;;5047965;28;20060;-70
2022/11/03 12:56:11;;;;;;;3.00;0.80;;;14.30;99.90;;;;;;5048098;28;20037;-70
2022/11/03 12:58:37;;;;;;;1.90;0.60;;;14.40;99.90;;;;;;5044037;28;20544;-70
2022/11/03 13:01:04;;;;;;;1.92;0.60;;;14.40;99.90;;;;;;5046572;28;20041;-70
2022/11/03 13:03:31;;;;;;;3.90;0.60;;;14.40;99.90;;;;;;5048535;28;20064;-70
2022/11/03 13:05:57;;;;;;;5.25;0.60;;;14.40;99.90;;;;;;5030920;28;20402;-70
2022/11/03 13:08:23;;;;;;;1.33;0.45;;;14.40;99.90;;;;;;5044087;28;20096;-70
2022/11/03 13:10:49;;;;;;;1.27;0.47;;;14.40;99.90;;;;;;5030665;28;20084;-70
2022/11/03 13:13:15;;;;;;;0.80;0.40;;;14.40;99.90;;;;;;5048070;28;20100;-70
2022/11/03 13:15:40;;;;;;;1.42;0.40;;;14.50;99.90;;;;;;5045438;28;20299;-70
2022/11/03 13:18:06;;;;;;;1.83;0.40;;;14.50;99.90;;;;;;5050730;28;20068;-70